createdAt,value
2022-11-23T00:02:54.324Z,98916.63
2022-11-23T00:05:57.039Z,98910.44
2022-11-23T00:08:59.999Z,98906.00
2022-11-23T00:12:03.483Z,98920.34
2022-11-23T00:15:07.373Z,98907.09
2022-11-23T00:18:11.429Z,98912.28
2022-11-23T00:21:16.147Z,98908.69
2022-11-23T00:24:19.180Z,98916.63
2022-11-23T00:27:22.043Z,98913.66
2022-11-23T00:30:24.741Z,98911.16
2022-11-23T00:33:28.847Z,98908.56
2022-11-23T00:36:31.570Z,98915.97
2022-11-23T00:39:34.402Z,98914.44
2022-11-23T00:42:38.334Z,98921.91
2022-11-23T00:45:41.201Z,98918.56
2022-11-23T00:48:46.604Z,98918.72
2022-11-23T00:51:49.412Z,98916.91
2022-11-23T00:54:52.145Z,98912.06
2022-11-23T00:57:54.835Z,98916.75
2022-11-23T01:01:06.327Z,98894.97
2022-11-23T01:04:10.670Z,98911.38
2022-11-23T01:07:13.446Z,98922.53
2022-11-23T01:10:16.390Z,98930.47
2022-11-23T01:13:19.084Z,98941.34
2022-11-23T01:16:24.543Z,98933.88
2022-11-23T01:19:30.623Z,98942.31
2022-11-23T01:22:33.619Z,98942.97
2022-11-23T01:25:37.363Z,98929.50
2022-11-23T01:28:41.324Z,98937.19
2022-11-23T01:31:46.836Z,98938.94
2022-11-23T01:34:51.148Z,98930.75
2022-11-23T01:37:53.859Z,98926.38
2022-11-23T01:40:56.617Z,98931.13
2022-11-23T01:43:59.463Z,98939.84
2022-11-23T01:47:03.822Z,98935.19
2022-11-23T01:50:08.773Z,98940.78
2022-11-23T01:53:11.488Z,98937.25
2022-11-23T01:56:17.598Z,98934.28
2022-11-23T01:59:21.672Z,98936.31
2022-11-23T02:02:26.611Z,98937.81
2022-11-23T02:05:34.811Z,98938.84
2022-11-23T02:08:37.651Z,98937.63
2022-11-23T02:11:40.388Z,98946.94
2022-11-23T02:14:43.858Z,98943.31
2022-11-23T02:17:47.550Z,98944.44
2022-11-23T02:20:52.325Z,98944.97
2022-11-23T02:24:03.207Z,98941.94
2022-11-23T02:27:07.947Z,98938.91
2022-11-23T02:30:12.358Z,98950.09
2022-11-23T02:33:15.107Z,98953.75
2022-11-23T02:36:38.314Z,98956.47
2022-11-23T02:39:47.107Z,98961.38
2022-11-23T02:42:51.620Z,98954.41
2022-11-23T02:45:57.433Z,98955.75
2022-11-23T02:49:00.130Z,98950.66
2022-11-23T02:52:05.004Z,98949.00
2022-11-23T02:55:08.132Z,98956.53
2022-11-23T02:58:12.652Z,98959.53
2022-11-23T03:01:15.389Z,98961.09
2022-11-23T03:04:21.870Z,98961.78
2022-11-23T03:07:28.720Z,98960.13
2022-11-23T03:10:31.510Z,98961.13
2022-11-23T03:13:35.652Z,98953.81
2022-11-23T03:16:38.552Z,98946.47
2022-11-23T03:19:41.788Z,98951.78
2022-11-23T03:22:44.621Z,98953.38
2022-11-23T03:25:56.489Z,98949.16
2022-11-23T03:29:00.513Z,98953.38
2022-11-23T03:32:04.324Z,98955.06
2022-11-23T03:35:08.746Z,98956.94
2022-11-23T03:38:11.704Z,98960.44
2022-11-23T03:41:14.380Z,98961.16
2022-11-23T03:44:18.506Z,98960.44
2022-11-23T03:47:21.204Z,98954.75
2022-11-23T03:50:24.159Z,98961.16
2022-11-23T03:53:26.939Z,98951.09
2022-11-23T03:56:29.687Z,98955.63
2022-11-23T03:59:34.038Z,98954.53
2022-11-23T04:02:37.028Z,98963.28
2022-11-23T04:05:39.764Z,98961.88
2022-11-23T04:08:42.464Z,98965.41
2022-11-23T04:11:45.178Z,98965.84
2022-11-23T04:14:49.247Z,98966.78
2022-11-23T04:17:51.981Z,98963.94
2022-11-23T04:20:54.870Z,98953.44
2022-11-23T04:23:57.551Z,98949.56
2022-11-23T04:27:00.615Z,98949.41
2022-11-23T04:30:05.362Z,98950.34
2022-11-23T04:33:08.184Z,98943.00
2022-11-23T04:36:11.041Z,98944.84
2022-11-23T04:39:14.216Z,98942.06
2022-11-23T04:42:16.910Z,98946.13
2022-11-23T04:45:21.025Z,98951.81
2022-11-23T04:48:23.999Z,98954.03
2022-11-23T04:51:26.702Z,98961.34
2022-11-23T04:54:29.608Z,98956.47
2022-11-23T04:57:32.356Z,98954.03
2022-11-23T05:00:36.586Z,98957.28
2022-11-23T05:03:39.276Z,98960.63
2022-11-23T05:06:41.918Z,98959.91
2022-11-23T05:09:44.830Z,98955.25
2022-11-23T05:12:47.524Z,98964.25
2022-11-23T05:15:51.642Z,98962.25
2022-11-23T05:18:54.359Z,98958.69
2022-11-23T05:21:57.060Z,98953.13
2022-11-23T05:24:59.791Z,98958.63
2022-11-23T05:28:16.660Z,98954.00
2022-11-23T05:31:27.318Z,98952.06
2022-11-23T05:34:30.011Z,98948.03
2022-11-23T05:37:34.396Z,98957.00
2022-11-23T05:40:37.180Z,98958.22
2022-11-23T05:43:39.862Z,98957.28
2022-11-23T05:46:43.956Z,98960.13
2022-11-23T05:49:46.640Z,98962.09
2022-11-23T05:52:49.380Z,98958.44
2022-11-23T05:55:52.066Z,98966.00
2022-11-23T05:58:56.198Z,98958.50
2022-11-23T06:02:00.252Z,98964.00
2022-11-23T06:05:03.651Z,98964.06
2022-11-23T06:08:06.623Z,98951.38
2022-11-23T06:11:09.472Z,98960.13
2022-11-23T06:14:14.501Z,98965.31
2022-11-23T06:17:19.098Z,98961.59
2022-11-23T06:20:21.807Z,98966.16
2022-11-23T06:23:25.010Z,98963.69
2022-11-23T06:26:27.703Z,98962.66
2022-11-23T06:29:31.271Z,98966.41
2022-11-23T06:32:35.567Z,98969.75
2022-11-23T06:35:38.759Z,98983.16
2022-11-23T06:38:41.468Z,98970.47
2022-11-23T06:41:44.637Z,98969.81
2022-11-23T06:44:47.327Z,98968.00
2022-11-23T06:47:51.421Z,98972.31
2022-11-23T06:50:54.684Z,98966.97
2022-11-23T06:53:57.379Z,98974.19
2022-11-23T06:57:00.079Z,98973.91
2022-11-23T07:00:03.916Z,98973.03
2022-11-23T07:03:08.268Z,98988.47
2022-11-23T07:06:11.926Z,98979.44
2022-11-23T07:09:14.699Z,98987.88
2022-11-23T07:12:17.406Z,98957.22
2022-11-23T07:15:20.142Z,98982.50
2022-11-23T07:18:24.198Z,98989.44
2022-11-23T07:21:26.957Z,98990.50
2022-11-23T07:24:37.935Z,98996.34
2022-11-23T07:27:42.530Z,98987.06
2022-11-23T07:30:45.352Z,99000.56
2022-11-23T07:33:50.205Z,98997.47
2022-11-23T07:36:52.926Z,98995.00
2022-11-23T07:39:57.942Z,98988.00
2022-11-23T07:43:01.732Z,99001.16
2022-11-23T07:46:04.498Z,98988.28
2022-11-23T07:49:08.772Z,98993.41
2022-11-23T07:52:11.668Z,98991.69
2022-11-23T07:55:14.394Z,98993.25
2022-11-23T07:58:17.187Z,99002.72
2022-11-23T08:01:20.906Z,98982.13
2022-11-23T08:04:26.755Z,98994.31
2022-11-23T08:07:29.618Z,99004.28
2022-11-23T08:10:38.760Z,99011.19
2022-11-23T08:13:44.717Z,98997.91
2022-11-23T08:16:49.980Z,98996.97
2022-11-23T08:19:54.083Z,98990.31
2022-11-23T08:22:57.271Z,99001.13
2022-11-23T08:26:00.027Z,98995.25
2022-11-23T08:29:03.609Z,99002.94
2022-11-23T08:32:06.633Z,98997.56
2022-11-23T08:35:10.838Z,99002.94
2022-11-23T08:38:13.924Z,98999.16
2022-11-23T08:41:18.123Z,99005.97
2022-11-23T08:44:20.864Z,99003.34
2022-11-23T08:47:23.589Z,99004.34
2022-11-23T08:50:29.260Z,99002.28
2022-11-23T08:53:32.033Z,99000.16
2022-11-23T08:56:34.736Z,99009.34
2022-11-23T08:59:37.453Z,99007.28
2022-11-23T09:02:40.162Z,99004.53
2022-11-23T09:05:44.164Z,99006.34
2022-11-23T09:08:47.050Z,99006.84
2022-11-23T09:11:49.873Z,99011.78
2022-11-23T09:14:53.911Z,99010.91
2022-11-23T09:17:57.680Z,99004.00
2022-11-23T09:21:03.564Z,99012.81
2022-11-23T09:24:06.846Z,99006.09
2022-11-23T09:27:09.609Z,99011.88
2022-11-23T09:30:13.669Z,99011.72
2022-11-23T09:33:16.430Z,99011.66
2022-11-23T09:36:21.275Z,99012.34
2022-11-23T09:39:24.118Z,99014.81
2022-11-23T09:42:42.192Z,99011.25
2022-11-23T09:45:50.871Z,99014.56
2022-11-23T09:49:16.135Z,99005.56
2022-11-23T09:52:24.504Z,99001.66
2022-11-23T09:55:35.126Z,99002.25
2022-11-23T09:58:41.218Z,99002.16
2022-11-23T10:01:43.949Z,98997.66
2022-11-23T10:04:46.725Z,98999.38
2022-11-23T10:08:03.254Z,98995.19
2022-11-23T10:11:27.254Z,98995.81
2022-11-23T10:14:44.791Z,98985.75
2022-11-23T10:18:05.723Z,98981.56
2022-11-23T10:21:20.311Z,98979.34
2022-11-23T10:24:30.993Z,98982.72
2022-11-23T10:27:33.901Z,98970.69
2022-11-23T10:30:37.287Z,98979.06
2022-11-23T10:33:50.864Z,98969.34
2022-11-23T10:36:53.766Z,98964.69
2022-11-23T10:39:57.814Z,98976.13
2022-11-23T10:43:03.085Z,98960.06
2022-11-23T10:46:31.020Z,98959.00
2022-11-23T10:49:34.847Z,98961.69
2022-11-23T10:52:37.803Z,98953.59
2022-11-23T10:55:50.253Z,98954.34
2022-11-23T10:58:53.052Z,98946.72
2022-11-23T11:02:12.339Z,98950.75
2022-11-23T11:05:40.241Z,98944.09
2022-11-23T11:08:52.045Z,98937.56
2022-11-23T11:11:56.131Z,98932.72
2022-11-23T11:15:11.448Z,98935.34
2022-11-23T11:18:19.549Z,98928.28
2022-11-23T11:21:25.339Z,98925.69
2022-11-23T11:24:33.412Z,98923.09
2022-11-23T11:27:37.746Z,98906.88
2022-11-23T11:30:49.574Z,98906.00
2022-11-23T11:33:59.766Z,98904.06
2022-11-23T11:37:09.962Z,98868.75
2022-11-23T11:40:22.578Z,98890.34
2022-11-23T11:43:37.835Z,98890.00
2022-11-23T11:46:48.571Z,98884.41
2022-11-23T11:49:53.533Z,98875.31
2022-11-23T11:53:03.510Z,98878.91
2022-11-23T11:56:17.343Z,98871.75
2022-11-23T11:59:28.052Z,98853.69
2022-11-23T12:02:34.780Z,98867.41
2022-11-23T12:05:42.292Z,98868.50
2022-11-23T12:08:51.890Z,98859.84
2022-11-23T12:11:54.842Z,98863.59
2022-11-23T12:14:59.103Z,98857.53
2022-11-23T12:18:34.621Z,98847.78
2022-11-23T12:21:58.447Z,98854.16
2022-11-23T12:25:14.524Z,98845.41
2022-11-23T12:28:37.898Z,98841.81
2022-11-23T12:31:46.154Z,98840.94
2022-11-23T12:35:07.099Z,98843.75
2022-11-23T12:38:24.883Z,98834.78
2022-11-23T12:41:40.723Z,98834.00
2022-11-23T12:44:56.858Z,98829.53
2022-11-23T12:48:16.692Z,98833.34
2022-11-23T12:51:29.288Z,98826.28
2022-11-23T12:54:55.973Z,98818.47
2022-11-23T12:58:07.344Z,98824.06
2022-11-23T13:01:16.065Z,98821.44
2022-11-23T13:04:43.648Z,98814.69
2022-11-23T13:08:14.102Z,98819.53
2022-11-23T13:11:26.864Z,98815.28
2022-11-23T13:14:37.862Z,98813.63
2022-11-23T13:17:49.900Z,98813.94
2022-11-23T13:21:18.026Z,98816.94
2022-11-23T13:24:28.701Z,98824.34
2022-11-23T13:27:43.115Z,98815.38
2022-11-23T13:31:07.712Z,98820.88
2022-11-23T13:34:45.038Z,98805.63
2022-11-23T13:38:19.747Z,98801.97
2022-11-23T13:42:01.976Z,98800.91
2022-11-23T13:45:31.353Z,98789.25
2022-11-23T13:48:59.027Z,98790.28
2022-11-23T13:52:07.847Z,98788.78
2022-11-23T13:55:23.551Z,98782.97
2022-11-23T13:58:40.882Z,98775.75
2022-11-23T14:02:24.335Z,98771.69
2022-11-23T14:05:38.285Z,98768.50
2022-11-23T14:08:42.030Z,98776.91
2022-11-23T14:11:56.760Z,98768.41
2022-11-23T14:15:04.580Z,98767.72
2022-11-23T14:18:34.781Z,98752.78
2022-11-23T14:21:50.903Z,98746.81
2022-11-23T14:25:23.705Z,98738.22
2022-11-23T14:28:45.976Z,98745.81
2022-11-23T14:32:00.493Z,98736.34
2022-11-23T14:35:19.288Z,98725.38
2022-11-23T14:38:47.500Z,98722.16
2022-11-23T14:41:54.477Z,98734.97
2022-11-23T14:45:04.811Z,98733.72
2022-11-23T14:48:22.097Z,98728.78
2022-11-23T14:51:27.182Z,98726.44
2022-11-23T14:54:30.931Z,98727.78
2022-11-23T14:57:42.079Z,98743.53
2022-11-23T15:00:48.531Z,98735.63
2022-11-23T15:03:58.880Z,98729.94
2022-11-23T15:07:06.869Z,98732.41
2022-11-23T15:10:25.247Z,98738.34
2022-11-23T15:13:29.497Z,98733.41
2022-11-23T15:16:42.600Z,98732.34
2022-11-23T15:19:54.627Z,98720.38
2022-11-23T15:22:57.484Z,98733.28
2022-11-23T15:26:04.015Z,98731.28
2022-11-23T15:29:06.931Z,98710.50
2022-11-23T15:32:33.694Z,98744.00
2022-11-23T15:35:39.784Z,98755.47
2022-11-23T15:38:42.814Z,98757.84
2022-11-23T15:41:46.609Z,98765.53
2022-11-23T15:44:51.716Z,98767.00
2022-11-23T15:48:00.811Z,98770.09
2022-11-23T15:51:05.736Z,98766.75
2022-11-23T15:54:18.500Z,98775.47
2022-11-23T15:57:24.900Z,98769.59
2022-11-23T16:00:27.793Z,98768.19
2022-11-23T16:03:42.789Z,98777.47
2022-11-23T16:06:49.596Z,98780.97
2022-11-23T16:10:13.142Z,98789.28
2022-11-23T16:13:36.596Z,98800.31
2022-11-23T16:16:45.255Z,98798.72
2022-11-23T16:19:50.233Z,98802.59
2022-11-23T16:22:54.666Z,98807.09
2022-11-23T16:26:00.587Z,98814.44
2022-11-23T16:29:05.911Z,98829.59
2022-11-23T16:32:23.789Z,98826.59
2022-11-23T16:35:26.678Z,98825.94
2022-11-23T16:38:29.406Z,98824.69
2022-11-23T16:41:32.227Z,98816.72
2022-11-23T16:44:40.198Z,98818.38
2022-11-23T16:47:53.096Z,98833.19
2022-11-23T16:50:57.665Z,98833.38
2022-11-23T16:54:19.196Z,98826.72
2022-11-23T16:57:59.070Z,98835.97
2022-11-23T17:01:04.106Z,98840.97
2022-11-23T17:04:06.911Z,98848.31
2022-11-23T17:07:10.218Z,98840.47
2022-11-23T17:10:13.730Z,98835.94
2022-11-23T17:13:22.708Z,98856.44
2022-11-23T17:16:27.209Z,98861.19
2022-11-23T17:19:31.918Z,98858.66
2022-11-23T17:22:34.844Z,98864.84
2022-11-23T17:25:38.732Z,98872.09
2022-11-23T17:28:41.523Z,98877.81
2022-11-23T17:31:45.792Z,98894.56
2022-11-23T17:34:48.471Z,98895.31
2022-11-23T17:37:51.138Z,98882.53
2022-11-23T17:40:53.844Z,98893.63
2022-11-23T17:43:58.537Z,98893.38
2022-11-23T17:47:03.226Z,98911.66
2022-11-23T17:50:07.428Z,98918.16
2022-11-23T17:53:10.907Z,98929.00
2022-11-23T17:56:18.125Z,98929.13
2022-11-23T17:59:20.817Z,98929.00
2022-11-23T18:02:25.097Z,98926.53
2022-11-23T18:05:29.910Z,98920.53
2022-11-23T18:08:32.931Z,98937.06
2022-11-23T18:11:35.639Z,98934.75
2022-11-23T18:14:38.661Z,98935.19
2022-11-23T18:17:42.766Z,98944.00
2022-11-23T18:20:45.449Z,98957.16
2022-11-23T18:23:48.264Z,98959.78
2022-11-23T18:26:50.918Z,98967.53
2022-11-23T18:29:53.624Z,98979.03
2022-11-23T18:32:58.086Z,98977.84
2022-11-23T18:36:05.340Z,98999.28
2022-11-23T18:39:08.525Z,99002.69
2022-11-23T18:42:11.271Z,99004.34
2022-11-23T18:45:14.613Z,99005.78
2022-11-23T18:48:18.666Z,99011.78
2022-11-23T18:51:21.382Z,99014.41
2022-11-23T18:54:24.068Z,99016.22
2022-11-23T18:57:27.218Z,99026.03
2022-11-23T19:00:30.068Z,99023.25
2022-11-23T19:03:37.283Z,99024.88
2022-11-23T19:06:40.243Z,99038.25
2022-11-23T19:09:43.342Z,99042.44
2022-11-23T19:12:46.158Z,99016.00
2022-11-23T19:15:48.890Z,99039.94
2022-11-23T19:18:56.305Z,99045.31
2022-11-23T19:21:59.258Z,99044.06
2022-11-23T19:25:02.343Z,99048.69
2022-11-23T19:28:05.143Z,99058.00
2022-11-23T19:31:12.451Z,99060.63
2022-11-23T19:34:16.576Z,99066.88
2022-11-23T19:37:19.304Z,99065.72
2022-11-23T19:40:21.984Z,99078.59
2022-11-23T19:43:24.685Z,99067.59
2022-11-23T19:46:27.843Z,99081.53
2022-11-23T19:49:32.315Z,99090.72
2022-11-23T19:53:03.656Z,99089.22
2022-11-23T19:56:02.250Z,99101.25
2022-11-23T19:59:05.156Z,99098.72
2022-11-23T20:02:08.063Z,99104.22
2022-11-23T20:05:12.912Z,99109.81
2022-11-23T20:08:15.708Z,99116.00
2022-11-23T20:11:18.451Z,99118.91
2022-11-23T20:14:21.607Z,99130.31
2022-11-23T20:17:24.354Z,99133.31
2022-11-23T20:20:28.900Z,99137.97
2022-11-23T20:23:31.734Z,99141.19
2022-11-23T20:26:36.169Z,99141.75
2022-11-23T20:29:40.235Z,99141.75
2022-11-23T20:32:42.916Z,99151.47
2022-11-23T20:35:47.746Z,99156.16
2022-11-23T20:38:51.459Z,99163.41
2022-11-23T20:41:54.209Z,99163.53
2022-11-23T20:44:56.947Z,99176.13
2022-11-23T20:47:59.728Z,99186.16
2022-11-23T20:51:10.102Z,99187.84
2022-11-23T20:54:13.446Z,99201.75
2022-11-23T20:57:16.208Z,99209.88
2022-11-23T21:00:21.403Z,99208.13
2022-11-23T21:03:24.181Z,99206.47
2022-11-23T21:06:30.109Z,99217.81
2022-11-23T21:09:35.297Z,99230.66
2022-11-23T21:12:55.831Z,99231.66
2022-11-23T21:16:05.153Z,99226.28
2022-11-23T21:19:09.325Z,99227.00
2022-11-23T21:22:14.873Z,99238.81
2022-11-23T21:25:17.583Z,99244.66
2022-11-23T21:28:20.276Z,99243.56
2022-11-23T21:31:23.062Z,99248.28
2022-11-23T21:34:27.652Z,99262.38
2022-11-23T21:37:31.753Z,99269.91
2022-11-23T21:40:34.581Z,99261.84
2022-11-23T21:43:37.405Z,99264.31
2022-11-23T21:46:41.579Z,99274.00
2022-11-23T21:49:44.614Z,99274.78
2022-11-23T21:52:48.653Z,99286.38
2022-11-23T21:55:51.350Z,99288.94
2022-11-23T21:58:54.502Z,99277.53
2022-11-23T22:01:58.720Z,99296.78
2022-11-23T22:05:02.196Z,99307.13
2022-11-23T22:08:28.638Z,99306.31
2022-11-23T22:11:31.186Z,99321.53
2022-11-23T22:14:34.242Z,99324.16
2022-11-23T22:17:37.173Z,99322.00
2022-11-23T22:20:39.943Z,99327.78
2022-11-23T22:23:44.306Z,99335.31
2022-11-23T22:26:48.181Z,99340.72
2022-11-23T22:29:51.084Z,99350.59
2022-11-23T22:32:53.840Z,99349.88
2022-11-23T22:36:00.460Z,99367.84
2022-11-23T22:39:06.446Z,99365.84
2022-11-23T22:42:09.353Z,99375.34
2022-11-23T22:45:12.808Z,99375.94
2022-11-23T22:48:15.545Z,99379.16
2022-11-23T22:51:20.215Z,99387.66
2022-11-23T22:54:24.335Z,99381.16
2022-11-23T22:57:27.355Z,99393.56
2022-11-23T23:00:30.091Z,99405.94
2022-11-23T23:03:33.008Z,99408.22
2022-11-23T23:06:36.006Z,99417.84
2022-11-23T23:09:40.185Z,99405.97
2022-11-23T23:12:43.152Z,99411.88
2022-11-23T23:15:46.843Z,99421.38
2022-11-23T23:18:50.221Z,99396.72
2022-11-23T23:21:52.911Z,99417.59
2022-11-23T23:24:57.284Z,99419.31
2022-11-23T23:28:00.258Z,99415.09
2022-11-23T23:31:05.212Z,99432.53
2022-11-23T23:34:08.515Z,99438.56
2022-11-23T23:37:12.110Z,99446.53
2022-11-23T23:40:16.656Z,99448.34
2022-11-23T23:43:19.381Z,99445.47
2022-11-23T23:46:22.320Z,99450.81
2022-11-23T23:49:26.322Z,99455.19
2022-11-23T23:52:29.085Z,99459.69
2022-11-23T23:55:33.217Z,99453.50
2022-11-23T23:58:36.351Z,99455.25
